Time;durP1;ratioP1;P1;durP2;ratioP2;P2;SDS_P1;SDS_P2;PMS_P1;PMS_P2;Temp;Humidity;BMP_temperature;BMP_pressure;BME280_temperature;BME280_humidity;BME280_pressure;Samples;Min_cycle;Max_cycle;Signal;HPM_P1;HPM_P2
2023/09/13 00:00:58;;;;;;;25.77;15.60;;;16.20;99.90;;;;;;4400717;28;658346;-70
2023/09/13 00:03:47;;;;;;;20.67;15.93;;;16.20;99.90;;;;;;4413070;28;658760;-70
2023/09/13 00:06:34;;;;;;;22.77;15.73;;;16.20;99.90;;;;;;4392675;28;659430;-70
2023/09/13 00:09:21;;;;;;;23.43;16.00;;;16.10;99.90;;;;;;4408619;28;659242;-70
2023/09/13 00:12:10;;;;;;;23.30;16.10;;;16.10;99.90;;;;;;4381928;28;658445;-70
2023/09/13 00:14:57;;;;;;;22.50;16.00;;;16.00;99.90;;;;;;4404324;28;659074;-70
2023/09/13 00:17:45;;;;;;;24.33;15.80;;;16.10;99.90;;;;;;4430826;28;658659;-70
2023/09/13 00:20:32;;;;;;;24.93;15.30;;;16.00;99.90;;;;;;4413408;28;658532;-70
2023/09/13 00:23:19;;;;;;;21.17;15.90;;;16.00;99.90;;;;;;4392008;28;659397;-70
2023/09/13 00:26:07;;;;;;;22.70;16.47;;;16.00;99.90;;;;;;4410018;28;659196;-70
2023/09/13 00:28:56;;;;;;;22.50;15.87;;;16.00;99.90;;;;;;4386674;28;659077;-70
2023/09/13 00:31:43;;;;;;;23.00;15.17;;;16.00;99.90;;;;;;4382531;28;658748;-70
2023/09/13 00:34:31;;;;;;;22.83;15.80;;;16.00;99.90;;;;;;4416465;28;659676;-70
2023/09/13 00:37:18;;;;;;;21.33;15.43;;;16.00;99.90;;;;;;4398056;28;658736;-70
2023/09/13 00:40:07;;;;;;;22.15;16.55;;;15.90;99.90;;;;;;4410834;28;658287;-70
2023/09/13 00:42:55;;;;;;;26.97;17.17;;;15.90;99.90;;;;;;4385434;28;659295;-70
2023/09/13 00:45:44;;;;;;;21.80;15.80;;;15.90;99.90;;;;;;4417990;28;658801;-70
2023/09/13 00:48:34;;;;;;;24.17;16.37;;;15.90;99.90;;;;;;4419861;28;659006;-70
2023/09/13 00:51:22;;;;;;;24.40;16.67;;;15.90;99.90;;;;;;4396108;28;658875;-70
2023/09/13 00:54:09;;;;;;;21.70;16.10;;;15.90;99.90;;;;;;4395283;28;658531;-70
2023/09/13 00:56:56;;;;;;;21.07;15.90;;;15.90;99.90;;;;;;4404090;28;659375;-70
2023/09/13 00:59:44;;;;;;;25.63;16.97;;;15.90;99.90;;;;;;4396511;28;659638;-70
2023/09/13 01:02:32;;;;;;;26.50;17.13;;;15.90;99.90;;;;;;4418871;28;659373;-70
2023/09/13 01:05:20;;;;;;;22.80;16.03;;;15.90;99.90;;;;;;4388833;28;659497;-70
2023/09/13 01:08:07;;;;;;;26.27;16.83;;;15.90;99.90;;;;;;4417800;28;660211;-70
2023/09/13 01:10:54;;;;;;;23.20;16.17;;;15.90;99.90;;;;;;4392210;28;658827;-70
2023/09/13 01:13:42;;;;;;;21.73;15.73;;;15.80;99.90;;;;;;4416107;28;658685;-70
2023/09/13 01:16:35;;;;;;;25.00;16.60;;;15.80;99.90;;;;;;4400123;28;659725;-70
2023/09/13 01:19:38;;;;;;;22.90;16.40;;;15.80;99.90;;;;;;4396529;28;658786;-70
2023/09/13 01:22:47;;;;;;;22.70;16.23;;;15.80;99.90;;;;;;4387631;28;658663;-70
2023/09/13 01:26:11;;;;;;;21.77;15.03;;;15.70;99.90;;;;;;4373031;28;658998;-70
2023/09/13 01:29:00;;;;;;;22.63;15.37;;;15.70;99.90;;;;;;4367597;28;658951;-70
2023/09/13 01:31:47;;;;;;;19.37;14.67;;;15.70;99.90;;;;;;4409910;28;658496;-70
2023/09/13 01:34:34;;;;;;;23.27;17.00;;;15.70;99.90;;;;;;4421542;28;659030;-70
2023/09/13 01:37:22;;;;;;;26.93;16.90;;;15.60;99.90;;;;;;4407487;28;658536;-70
2023/09/13 01:40:09;;;;;;;24.17;16.77;;;15.70;99.90;;;;;;4387943;28;659351;-70
2023/09/13 01:42:57;;;;;;;23.57;16.37;;;15.70;99.90;;;;;;4414142;28;658950;-70
2023/09/13 01:45:45;;;;;;;26.90;16.33;;;15.60;99.90;;;;;;4397904;28;659218;-70
2023/09/13 01:48:32;;;;;;;23.00;15.53;;;15.60;99.90;;;;;;4390175;28;658465;-70
2023/09/13 01:51:20;;;;;;;18.63;15.07;;;15.60;99.90;;;;;;4415758;28;659007;-70
2023/09/13 01:54:07;;;;;;;24.20;14.97;;;15.60;99.90;;;;;;4403796;28;658546;-70
2023/09/13 01:56:54;;;;;;;28.47;16.00;;;15.60;99.90;;;;;;4402045;28;660690;-70
2023/09/13 01:59:41;;;;;;;27.07;16.80;;;15.60;99.90;;;;;;4425617;28;658714;-70
2023/09/13 02:02:30;;;;;;;22.90;16.67;;;15.60;99.90;;;;;;4388345;28;658839;-70
2023/09/13 02:05:17;;;;;;;21.37;15.57;;;15.60;99.90;;;;;;4404321;28;658752;-70
2023/09/13 02:08:05;;;;;;;24.97;16.03;;;15.50;99.90;;;;;;4420782;28;659185;-70
2023/09/13 02:10:52;;;;;;;23.40;16.73;;;15.50;99.90;;;;;;4391667;28;658384;-70
2023/09/13 02:13:40;;;;;;;22.27;15.73;;;15.50;99.90;;;;;;4414199;28;659001;-70
2023/09/13 02:16:27;;;;;;;27.63;17.07;;;15.40;99.90;;;;;;4414765;28;658613;-70
2023/09/13 02:19:15;;;;;;;27.40;17.20;;;15.50;99.90;;;;;;4394798;28;659816;-70
2023/09/13 02:22:03;;;;;;;24.00;16.37;;;15.50;99.90;;;;;;4396387;28;658388;-70
2023/09/13 02:24:50;;;;;;;24.70;16.03;;;15.50;99.90;;;;;;4408671;28;659360;-70
2023/09/13 02:27:37;;;;;;;22.47;15.37;;;15.40;99.90;;;;;;4407280;28;658607;-70
2023/09/13 02:30:25;;;;;;;21.03;15.17;;;15.40;99.90;;;;;;4416657;28;659270;-70
2023/09/13 02:33:12;;;;;;;21.17;15.53;;;15.40;99.90;;;;;;4424702;28;658751;-70
2023/09/13 02:36:00;;;;;;;21.60;14.40;;;15.40;99.90;;;;;;4384369;28;660197;-70
2023/09/13 02:38:48;;;;;;;21.90;15.50;;;15.30;99.90;;;;;;4398760;28;658952;-70
2023/09/13 02:41:35;;;;;;;19.53;15.20;;;15.40;99.90;;;;;;4417500;28;659571;-70
2023/09/13 02:44:23;;;;;;;21.27;15.93;;;15.30;99.90;;;;;;4390692;28;658650;-70
2023/09/13 02:47:10;;;;;;;23.93;15.83;;;15.40;99.90;;;;;;4412071;28;659841;-70
2023/09/13 02:49:57;;;;;;;21.43;15.23;;;15.30;99.90;;;;;;4407627;28;659744;-70
2023/09/13 02:52:46;;;;;;;21.67;16.43;;;15.30;99.90;;;;;;4409574;28;659781;-70
2023/09/13 02:55:33;;;;;;;21.47;15.47;;;15.30;99.90;;;;;;4400905;28;658457;-70
2023/09/13 02:58:20;;;;;;;21.52;16.90;;;15.30;99.90;;;;;;4404379;28;659219;-70
2023/09/13 03:01:10;;;;;;;27.87;16.40;;;15.30;99.90;;;;;;4398656;28;658962;-70
2023/09/13 03:03:57;;;;;;;21.13;15.43;;;15.30;99.90;;;;;;4412115;28;659041;-70
2023/09/13 03:06:45;;;;;;;21.27;15.63;;;15.20;99.90;;;;;;4411739;28;659248;-70
2023/09/13 03:09:33;;;;;;;20.47;15.50;;;15.20;99.90;;;;;;4421186;28;658800;-70
2023/09/13 03:12:21;;;;;;;20.37;14.77;;;15.20;99.90;;;;;;4391137;28;659157;-70
2023/09/13 03:15:08;;;;;;;23.07;16.47;;;15.20;99.90;;;;;;4399308;28;659411;-70
2023/09/13 03:17:55;;;;;;;22.90;15.33;;;15.20;99.90;;;;;;4427669;28;659729;-70
2023/09/13 03:20:42;;;;;;;22.92;15.18;;;15.20;99.90;;;;;;4400923;28;658546;-70
2023/09/13 03:23:31;;;;;;;19.00;14.73;;;15.20;99.90;;;;;;4421186;28;659688;-70
2023/09/13 03:26:21;;;;;;;22.83;15.20;;;15.20;99.90;;;;;;4392744;28;659036;-70
2023/09/13 03:29:08;;;;;;;26.50;16.27;;;15.10;99.90;;;;;;4400080;28;658425;-70
2023/09/13 03:31:55;;;;;;;23.27;15.87;;;15.10;99.90;;;;;;4422010;28;659427;-70
2023/09/13 03:34:43;;;;;;;21.67;16.17;;;15.00;99.90;;;;;;4402470;28;658568;-70
2023/09/13 03:37:31;;;;;;;25.90;15.70;;;15.00;99.90;;;;;;4403417;28;659404;-70
2023/09/13 03:40:19;;;;;;;22.87;15.67;;;15.00;99.90;;;;;;4381106;28;659110;-70
2023/09/13 03:43:07;;;;;;;22.77;15.87;;;15.00;99.90;;;;;;4415385;28;659676;-70
2023/09/13 03:45:55;;;;;;;25.10;15.87;;;14.90;99.90;;;;;;4398045;28;659359;-70
2023/09/13 03:48:43;;;;;;;23.90;15.23;;;14.90;99.90;;;;;;4401561;28;659105;-70
2023/09/13 03:51:30;;;;;;;21.73;15.33;;;14.90;99.90;;;;;;4406461;28;660096;-70
2023/09/13 03:54:17;;;;;;;24.30;15.80;;;14.90;99.90;;;;;;4404252;28;659433;-70
2023/09/13 03:57:05;;;;;;;20.20;14.67;;;14.90;99.90;;;;;;4420482;28;659061;-70
2023/09/13 03:59:54;;;;;;;22.57;15.27;;;14.90;99.90;;;;;;4406383;28;659339;-70
2023/09/13 04:02:41;;;;;;;23.10;15.87;;;14.80;99.90;;;;;;4416860;28;658683;-70
2023/09/13 04:05:29;;;;;;;21.93;15.43;;;14.80;99.90;;;;;;4393873;28;659223;-70
2023/09/13 04:08:16;;;;;;;26.20;16.03;;;14.70;99.90;;;;;;4412739;28;658679;-70
2023/09/13 04:11:04;;;;;;;21.97;16.00;;;14.70;99.90;;;;;;4393699;28;659133;-70
2023/09/13 04:13:51;;;;;;;25.87;16.17;;;14.70;99.90;;;;;;4412625;28;659414;-70
2023/09/13 04:16:39;;;;;;;23.87;15.73;;;14.70;99.90;;;;;;4393410;28;658203;-70
2023/09/13 04:19:27;;;;;;;26.30;15.27;;;14.70;99.90;;;;;;4425001;28;659486;-70
2023/09/13 04:22:16;;;;;;;20.43;14.77;;;14.70;99.90;;;;;;4397593;28;658887;-70
2023/09/13 04:25:04;;;;;;;23.37;15.87;;;14.70;99.90;;;;;;4396413;28;658490;-70
2023/09/13 04:27:51;;;;;;;23.47;15.93;;;14.80;99.90;;;;;;4421650;28;658710;-69
2023/09/13 04:30:38;;;;;;;24.30;16.35;;;14.70;99.90;;;;;;4395589;28;659176;-70
2023/09/13 04:33:51;;;;;;;34.27;17.30;;;14.70;99.90;;;;;;4415531;28;659368;-69
2023/09/13 04:36:39;;;;;;;24.70;16.77;;;14.70;99.90;;;;;;4366116;28;659296;-71
2023/09/13 04:39:27;;;;;;;28.90;16.63;;;14.80;99.90;;;;;;4410982;28;659479;-70
2023/09/13 04:42:14;;;;;;;23.67;16.33;;;14.80;99.90;;;;;;4392759;28;659957;-71
2023/09/13 04:45:02;;;;;;;25.93;16.30;;;14.90;99.90;;;;;;4402939;28;659222;-71
2023/09/13 04:47:50;;;;;;;24.77;15.63;;;14.90;99.90;;;;;;4387992;28;659098;-71
2023/09/13 04:50:39;;;;;;;21.27;16.23;;;14.90;99.90;;;;;;4391797;28;659487;-70
2023/09/13 04:53:26;;;;;;;25.07;16.40;;;14.80;99.90;;;;;;4416806;28;658576;-72
2023/09/13 04:56:13;;;;;;;32.00;16.80;;;14.90;99.90;;;;;;4399339;28;659475;-71
2023/09/13 04:59:01;;;;;;;30.07;18.33;;;15.00;99.90;;;;;;4398086;28;658949;-71
2023/09/13 05:01:48;;;;;;;26.60;17.00;;;15.10;99.90;;;;;;4386462;28;658346;-71
2023/09/13 05:04:35;;;;;;;24.97;16.60;;;15.10;99.90;;;;;;4413992;28;658843;-71
2023/09/13 05:07:24;;;;;;;25.17;16.83;;;15.20;99.90;;;;;;4400091;28;659141;-71
2023/09/13 05:10:11;;;;;;;20.80;16.43;;;15.30;99.90;;;;;;4410227;28;658360;-71
2023/09/13 05:12:58;;;;;;;26.33;16.50;;;15.40;99.90;;;;;;4394720;28;658713;-71
2023/09/13 05:15:45;;;;;;;23.93;16.57;;;15.50;99.90;;;;;;4413430;28;659353;-71
2023/09/13 05:18:33;;;;;;;25.10;17.07;;;15.50;99.90;;;;;;4389790;28;658811;-71
2023/09/13 05:21:20;;;;;;;25.73;16.70;;;15.60;99.90;;;;;;4416213;28;659051;-71
2023/09/13 05:24:09;;;;;;;23.77;17.27;;;15.70;99.90;;;;;;4387753;28;659008;-71
2023/09/13 05:26:57;;;;;;;23.97;16.53;;;15.80;99.90;;;;;;4407902;28;659144;-71
2023/09/13 05:29:44;;;;;;;27.53;17.00;;;15.90;99.90;;;;;;4390045;28;658553;-71
2023/09/13 05:32:31;;;;;;;26.83;16.67;;;16.00;99.90;;;;;;4419725;28;659394;-70
2023/09/13 05:35:18;;;;;;;19.90;15.75;;;16.20;99.90;;;;;;4392745;28;658640;-70
2023/09/13 05:38:06;;;;;;;23.13;16.17;;;16.30;99.90;;;;;;4424216;28;658823;-70
2023/09/13 05:40:55;;;;;;;23.50;16.33;;;16.30;99.90;;;;;;4393728;28;660242;-70
2023/09/13 05:43:43;;;;;;;25.07;16.50;;;16.50;99.90;;;;;;4415424;28;658834;-70
2023/09/13 05:46:30;;;;;;;30.30;15.47;;;16.60;99.90;;;;;;4411602;28;658733;-70
2023/09/13 05:49:18;;;;;;;23.50;15.97;;;16.80;99.90;;;;;;4401108;28;658766;-70
2023/09/13 05:52:06;;;;;;;25.33;15.80;;;16.90;99.90;;;;;;4404812;28;660433;-70
2023/09/13 05:54:53;;;;;;;20.00;15.47;;;17.10;99.90;;;;;;4390648;28;659644;-70
2023/09/13 05:57:42;;;;;;;26.77;16.47;;;17.30;99.90;;;;;;4410248;28;661663;-71
2023/09/13 06:00:29;;;;;;;25.47;16.53;;;17.40;99.90;;;;;;4382980;28;661036;-70
2023/09/13 06:03:17;;;;;;;23.27;16.30;;;17.60;99.90;;;;;;4413188;28;659787;-70
2023/09/13 06:06:04;;;;;;;23.60;14.93;;;17.70;99.90;;;;;;4388823;28;660213;-70
2023/09/13 06:08:51;;;;;;;20.53;14.43;;;17.90;99.90;;;;;;4410485;28;660047;-70
2023/09/13 06:11:38;;;;;;;25.20;14.40;;;18.00;99.90;;;;;;4389651;28;659605;-70
2023/09/13 06:14:27;;;;;;;21.10;14.23;;;18.20;99.90;;;;;;4414795;28;660733;-70
2023/09/13 06:17:14;;;;;;;23.87;13.73;;;18.40;99.90;;;;;;4395101;28;659999;-70
2023/09/13 06:20:01;;;;;;;21.07;13.63;;;18.60;99.90;;;;;;4417426;28;659527;-70
2023/09/13 06:22:49;;;;;;;21.97;14.30;;;18.80;99.90;;;;;;4388473;28;660172;-70
2023/09/13 06:25:36;;;;;;;19.60;14.43;;;19.00;99.90;;;;;;4418402;28;659844;-70
2023/09/13 06:28:23;;;;;;;19.70;13.73;;;19.20;99.90;;;;;;4393486;28;659955;-70
2023/09/13 06:31:12;;;;;;;24.30;12.73;;;19.40;99.90;;;;;;4419088;28;660228;-70
2023/09/13 06:33:59;;;;;;;21.47;11.50;;;19.60;99.90;;;;;;4396509;28;660905;-70
2023/09/13 06:36:48;;;;;;;24.37;10.90;;;19.70;99.90;;;;;;4412043;28;659288;-70
2023/09/13 06:39:35;;;;;;;24.63;10.73;;;19.90;99.90;;;;;;4401394;28;660501;-70
2023/09/13 06:42:22;;;;;;;23.27;11.20;;;20.10;99.90;;;;;;4392519;28;660588;-70
2023/09/13 06:45:10;;;;;;;20.77;11.77;;;20.30;99.90;;;;;;4405092;28;660751;-70
2023/09/13 06:47:59;;;;;;;19.93;11.30;;;20.50;99.90;;;;;;4391479;28;659664;-70
2023/09/13 06:50:46;;;;;;;16.23;9.70;;;20.70;99.90;;;;;;4403755;28;659868;-70
2023/09/13 06:53:33;;;;;;;19.20;8.70;;;20.90;99.90;;;;;;4393370;28;659036;-70
2023/09/13 06:56:20;;;;;;;22.60;8.20;;;21.10;99.90;;;;;;4419764;28;659351;-70
2023/09/13 06:59:07;;;;;;;17.17;8.20;;;21.30;99.90;;;;;;4387475;28;659531;-70
2023/09/13 07:01:55;;;;;;;19.43;8.13;;;21.50;99.90;;;;;;4402933;28;659938;-70
2023/09/13 07:04:44;;;;;;;23.03;8.53;;;21.70;99.90;;;;;;4410627;28;658777;-70
2023/09/13 07:07:31;;;;;;;27.77;8.93;;;21.90;99.90;;;;;;4415231;28;658641;-70
2023/09/13 07:10:18;;;;;;;19.90;8.30;;;22.10;99.90;;;;;;4394947;28;659108;-70
2023/09/13 07:13:05;;;;;;;21.07;8.50;;;22.30;99.90;;;;;;4417242;28;659434;-70
2023/09/13 07:15:53;;;;;;;21.03;8.17;;;22.40;99.90;;;;;;4398697;28;658513;-70
2023/09/13 07:18:40;;;;;;;26.33;9.63;;;22.60;99.90;;;;;;4413156;28;659129;-70
2023/09/13 07:21:29;;;;;;;22.73;8.27;;;22.70;99.90;;;;;;4402315;28;658333;-70
2023/09/13 07:24:16;;;;;;;22.58;8.43;;;22.90;99.90;;;;;;4408763;28;658526;-70
2023/09/13 07:27:04;;;;;;;18.37;9.07;;;23.10;99.90;;;;;;4398326;28;659266;-70
2023/09/13 07:29:51;;;;;;;19.63;8.43;;;23.30;99.90;;;;;;4416013;28;658831;-70
2023/09/13 07:32:38;;;;;;;22.02;7.90;;;23.60;99.90;;;;;;4393451;28;659348;-70
2023/09/13 07:35:26;;;;;;;18.17;7.82;;;23.70;99.90;;;;;;4412909;28;659060;-70
2023/09/13 07:38:14;;;;;;;24.50;8.50;;;23.80;99.90;;;;;;4394340;28;659019;-70
2023/09/13 07:41:02;;;;;;;19.85;7.93;;;23.90;99.90;;;;;;4407840;28;658961;-70
2023/09/13 07:43:49;;;;;;;24.17;8.32;;;24.20;99.90;;;;;;4396430;28;658713;-70
2023/09/13 07:46:36;;;;;;;21.15;9.10;;;24.30;99.90;;;;;;4413106;28;659119;-70
2023/09/13 07:49:24;;;;;;;20.77;8.55;;;24.30;99.90;;;;;;4400600;28;659243;-70
2023/09/13 07:52:11;;;;;;;17.38;8.70;;;24.60;99.90;;;;;;4416783;28;657862;-70
2023/09/13 07:55:00;;;;;;;22.48;8.15;;;24.80;99.90;;;;;;4399303;28;659423;-70
2023/09/13 07:57:47;;;;;;;19.45;8.00;;;24.80;99.90;;;;;;4411120;28;658834;-71
2023/09/13 08:00:35;;;;;;;19.63;7.75;;;24.90;99.90;;;;;;4409975;28;659617;-71
2023/09/13 08:03:22;;;;;;;16.40;8.07;;;25.00;99.90;;;;;;4408925;28;658536;-71
2023/09/13 08:06:10;;;;;;;26.83;8.45;;;25.10;99.90;;;;;;4419348;28;659334;-71
2023/09/13 08:08:58;;;;;;;19.42;7.82;;;25.10;99.90;;;;;;4385478;28;658357;-71
2023/09/13 08:11:47;;;;;;;16.90;7.95;;;25.30;99.90;;;;;;4422226;28;659578;-71
2023/09/13 08:14:34;;;;;;;19.23;8.65;;;25.20;99.90;;;;;;4403246;28;659915;-71
2023/09/13 08:17:21;;;;;;;22.13;8.82;;;25.40;99.90;;;;;;4426275;28;658707;-71
2023/09/13 08:20:09;;;;;;;17.88;8.60;;;25.50;99.90;;;;;;4385039;28;659474;-71
2023/09/13 08:22:56;;;;;;;18.55;8.85;;;25.60;99.90;;;;;;4409021;28;658653;-71
2023/09/13 08:25:44;;;;;;;21.60;9.38;;;25.60;99.90;;;;;;4399315;28;658595;-71
2023/09/13 08:28:34;;;;;;;25.60;9.40;;;25.80;99.90;;;;;;4417942;28;658916;-71
2023/09/13 08:31:23;;;;;;;17.13;8.65;;;25.80;99.90;;;;;;4397522;28;660001;-71
2023/09/13 08:34:11;;;;;;;18.33;8.88;;;26.10;99.90;;;;;;4392474;28;659708;-71
2023/09/13 08:36:58;;;;;;;20.95;8.57;;;26.10;99.90;;;;;;4387731;28;658803;-70
2023/09/13 08:39:45;;;;;;;24.02;8.98;;;26.30;99.90;;;;;;4408491;28;660213;-71
2023/09/13 08:42:32;;;;;;;14.27;8.02;;;26.40;99.90;;;;;;4394119;28;659169;-70
2023/09/13 08:45:22;;;;;;;22.23;9.55;;;26.50;99.90;;;;;;4405075;28;658791;-71
2023/09/13 08:48:09;;;;;;;16.58;8.07;;;26.60;99.90;;;;;;4401985;28;659349;-71
2023/09/13 08:50:56;;;;;;;15.73;8.95;;;26.60;99.90;;;;;;4418671;28;659078;-71
2023/09/13 08:53:43;;;;;;;20.33;8.32;;;27.10;99.90;;;;;;4380780;28;659454;-71
2023/09/13 08:56:30;;;;;;;20.08;9.00;;;27.10;99.90;;;;;;4407742;28;658516;-71
2023/09/13 08:59:18;;;;;;;10.93;8.55;;;27.50;99.80;;;;;;4389348;28;658835;-71
2023/09/13 09:02:06;;;;;;;14.05;7.95;;;27.50;99.90;;;;;;4412710;28;659950;-71
2023/09/13 09:04:53;;;;;;;23.60;8.43;;;27.40;96.40;;;;;;4395512;28;658543;-70
2023/09/13 09:07:41;;;;;;;19.13;8.73;;;27.40;99.90;;;;;;4411961;28;660039;-71
2023/09/13 09:10:28;;;;;;;18.70;7.97;;;27.50;94.50;;;;;;4381583;28;658934;-70
2023/09/13 09:13:15;;;;;;;18.10;8.65;;;27.70;91.40;;;;;;4413271;28;659596;-71
2023/09/13 09:16:03;;;;;;;18.90;8.98;;;27.60;91.60;;;;;;4385652;28;658524;-70
2023/09/13 09:18:52;;;;;;;17.42;8.07;;;27.80;99.90;;;;;;4414470;28;660314;-70
2023/09/13 09:21:39;;;;;;;13.65;7.57;;;28.00;98.20;;;;;;4386194;28;658846;-70
2023/09/13 09:24:26;;;;;;;16.20;8.05;;;28.00;82.50;;;;;;4414108;28;658353;-70
2023/09/13 09:27:13;;;;;;;13.82;8.23;;;28.10;89.40;;;;;;4400940;28;659134;-70
2023/09/13 09:30:03;;;;;;;16.42;7.90;;;27.70;84.10;;;;;;4407020;28;658938;-70
2023/09/13 09:32:50;;;;;;;20.25;7.82;;;28.00;87.20;;;;;;4390721;28;659184;-71
2023/09/13 09:35:39;;;;;;;18.73;8.13;;;28.20;80.90;;;;;;4410958;28;659013;-70
2023/09/13 09:38:28;;;;;;;16.98;7.75;;;28.50;80.30;;;;;;4418511;28;658625;-70
2023/09/13 09:41:15;;;;;;;12.40;7.32;;;28.80;81.70;;;;;;4391589;28;660541;-70
2023/09/13 09:44:03;;;;;;;16.13;7.93;;;29.00;76.30;;;;;;4386943;28;658509;-70
2023/09/13 09:46:50;;;;;;;15.88;7.88;;;29.40;80.40;;;;;;4411840;28;659056;-71
2023/09/13 09:49:38;;;;;;;20.67;8.23;;;29.10;68.70;;;;;;4393223;28;658673;-70
2023/09/13 09:52:26;;;;;;;21.25;7.88;;;28.00;72.10;;;;;;4411339;28;659435;-70
2023/09/13 09:55:15;;;;;;;16.73;8.57;;;28.60;85.20;;;;;;4386191;28;658712;-71
2023/09/13 09:58:03;;;;;;;18.55;8.23;;;29.10;71.00;;;;;;4394639;28;659901;-70
2023/09/13 10:00:51;;;;;;;17.15;7.82;;;29.30;69.70;;;;;;4401293;28;659340;-70
2023/09/13 10:03:38;;;;;;;21.42;8.48;;;29.30;67.30;;;;;;4386338;28;658745;-70
2023/09/13 10:06:26;;;;;;;17.58;8.55;;;29.10;69.30;;;;;;4410684;28;658621;-71
2023/09/13 10:09:15;;;;;;;18.77;8.55;;;29.20;75.40;;;;;;4388547;28;658376;-70
2023/09/13 10:12:02;;;;;;;15.77;8.15;;;28.60;72.00;;;;;;4410458;28;658519;-71
2023/09/13 10:14:49;;;;;;;17.17;8.23;;;28.80;70.40;;;;;;4392024;28;659094;-70
2023/09/13 10:17:37;;;;;;;13.73;8.25;;;29.30;69.60;;;;;;4409325;28;658929;-70
2023/09/13 10:20:24;;;;;;;19.05;8.85;;;29.70;71.60;;;;;;4387217;28;658569;-72
2023/09/13 10:23:12;;;;;;;18.35;8.70;;;29.70;65.70;;;;;;4414278;28;658544;-72
2023/09/13 10:26:00;;;;;;;20.20;9.18;;;30.00;68.00;;;;;;4388213;28;660156;-72
2023/09/13 10:28:49;;;;;;;16.58;8.88;;;30.00;71.80;;;;;;4384225;28;659201;-71
2023/09/13 10:31:37;;;;;;;11.68;7.95;;;29.90;69.60;;;;;;4408066;28;659890;-72
2023/09/13 10:34:26;;;;;;;22.23;9.27;;;30.50;71.90;;;;;;4388769;28;658680;-71
2023/09/13 10:37:18;;;;;;;13.10;8.60;;;30.00;65.90;;;;;;4386917;28;658585;-73
2023/09/13 10:40:10;;;;;;;14.57;8.93;;;29.20;64.80;;;;;;4383595;28;659877;-72
2023/09/13 10:42:59;;;;;;;20.40;9.10;;;29.00;65.80;;;;;;4368801;28;658628;-71
2023/09/13 10:45:46;;;;;;;17.13;8.98;;;28.90;69.90;;;;;;4407658;28;659147;-71
2023/09/13 10:48:33;;;;;;;13.55;8.80;;;29.30;71.00;;;;;;4387831;28;659099;-71
2023/09/13 10:51:21;;;;;;;14.10;9.05;;;29.60;65.00;;;;;;4411554;28;658363;-71
2023/09/13 10:54:08;;;;;;;20.92;10.05;;;29.60;65.30;;;;;;4391166;28;658810;-71
2023/09/13 10:56:55;;;;;;;16.40;9.40;;;29.60;62.90;;;;;;4405671;28;660158;-71
2023/09/13 10:59:44;;;;;;;17.40;9.00;;;29.60;64.70;;;;;;4399631;28;658565;-71
2023/09/13 11:02:31;;;;;;;16.35;9.85;;;28.80;67.40;;;;;;4424488;28;658297;-71
2023/09/13 11:05:18;;;;;;;17.17;10.02;;;29.00;74.30;;;;;;4395669;28;658390;-71
2023/09/13 11:08:07;;;;;;;20.45;9.90;;;29.30;68.10;;;;;;4401767;28;659980;-72
2023/09/13 11:10:54;;;;;;;21.05;9.70;;;29.50;68.00;;;;;;4391580;28;658918;-71
2023/09/13 11:13:41;;;;;;;16.85;9.30;;;29.70;66.80;;;;;;4399385;28;658136;-71
2023/09/13 11:16:30;;;;;;;20.70;9.63;;;29.20;66.80;;;;;;4392024;28;658846;-71
2023/09/13 11:19:18;;;;;;;18.33;9.63;;;29.40;65.60;;;;;;4404812;28;659515;-70
2023/09/13 11:22:06;;;;;;;15.77;9.05;;;30.00;68.80;;;;;;4417676;28;659763;-72
2023/09/13 11:24:53;;;;;;;17.52;8.95;;;30.50;63.10;;;;;;4395974;28;658545;-72
2023/09/13 11:27:40;;;;;;;15.80;8.82;;;30.80;64.90;;;;;;4401620;28;659793;-71
2023/09/13 11:30:46;;;;;;;14.50;8.00;;;30.90;62.50;;;;;;4395140;28;658554;-71
2023/09/13 11:33:39;;;;;;;21.83;7.67;;;31.00;59.30;;;;;;4365616;28;659113;-71
2023/09/13 11:36:27;;;;;;;12.37;7.80;;;31.10;55.10;;;;;;4387564;28;659536;-71
2023/09/13 11:39:14;;;;;;;15.30;8.05;;;30.70;57.40;;;;;;4386142;28;659049;-69
2023/09/13 11:42:01;;;;;;;12.50;7.90;;;30.60;55.20;;;;;;4412775;28;659342;-72
2023/09/13 11:44:50;;;;;;;20.73;8.43;;;30.50;57.40;;;;;;4395573;28;658524;-71
2023/09/13 11:47:37;;;;;;;16.20;7.72;;;30.80;59.30;;;;;;4406766;28;659020;-70
2023/09/13 11:50:26;;;;;;;15.75;8.07;;;31.20;57.30;;;;;;4398229;28;659583;-71
2023/09/13 11:53:16;;;;;;;13.35;7.90;;;31.60;55.30;;;;;;4393675;28;658866;-71
2023/09/13 11:56:03;;;;;;;21.75;8.23;;;31.80;54.90;;;;;;4394430;28;658446;-71
2023/09/13 11:58:50;;;;;;;16.30;8.90;;;30.70;55.80;;;;;;4409125;28;659317;-71
2023/09/13 12:01:42;;;;;;;16.40;9.02;;;30.30;58.30;;;;;;4402744;28;659001;-71
2023/09/13 12:04:30;;;;;;;14.63;8.70;;;29.80;57.10;;;;;;4368318;28;659804;-71
2023/09/13 12:07:20;;;;;;;15.48;8.80;;;30.20;60.40;;;;;;4392090;28;658553;-71
2023/09/13 12:10:08;;;;;;;12.55;8.18;;;30.70;63.50;;;;;;4409877;28;658860;-71
2023/09/13 12:12:55;;;;;;;19.23;8.45;;;31.40;56.80;;;;;;4409511;28;659313;-71
2023/09/13 12:15:59;;;;;;;16.05;8.52;;;32.00;58.20;;;;;;4403313;28;659622;-71
2023/09/13 12:18:46;;;;;;;12.57;8.05;;;31.50;55.70;;;;;;4370086;28;658769;-71
2023/09/13 12:21:34;;;;;;;12.38;7.60;;;30.70;54.90;;;;;;4390401;28;658961;-71
2023/09/13 12:24:25;;;;;;;15.38;8.30;;;31.30;52.10;;;;;;4404741;28;658854;-71
2023/09/13 12:27:12;;;;;;;17.08;7.25;;;31.90;55.70;;;;;;4374079;28;658315;-71
2023/09/13 12:30:00;;;;;;;14.93;8.15;;;31.80;50.00;;;;;;4412856;28;660704;-71
2023/09/13 12:32:50;;;;;;;15.18;7.78;;;32.30;51.60;;;;;;4392865;28;659208;-70
2023/09/13 12:35:39;;;;;;;17.65;7.55;;;32.60;50.90;;;;;;4394451;28;659099;-71
2023/09/13 12:38:33;;;;;;;17.17;7.10;;;31.90;52.30;;;;;;4409164;28;658319;-72
2023/09/13 12:41:23;;;;;;;11.45;6.38;;;31.90;53.30;;;;;;4384631;28;658861;-71
2023/09/13 12:44:10;;;;;;;9.37;6.30;;;32.10;51.20;;;;;;4380309;28;659409;-72
2023/09/13 12:46:58;;;;;;;13.93;6.68;;;32.40;47.40;;;;;;4386847;28;657604;-71
2023/09/13 12:49:45;;;;;;;16.23;7.00;;;32.80;47.10;;;;;;4410604;28;660419;-71
2023/09/13 12:52:32;;;;;;;13.73;6.97;;;32.60;45.80;;;;;;4402638;28;659501;-72
2023/09/13 12:55:24;;;;;;;14.52;6.57;;;32.30;46.60;;;;;;4413361;28;659252;-74
2023/09/13 12:58:12;;;;;;;9.93;7.17;;;31.20;47.30;;;;;;4394599;28;658944;-71
2023/09/13 13:01:00;;;;;;;14.88;7.40;;;30.50;48.50;;;;;;4395811;28;658195;-72
2023/09/13 13:03:59;;;;;;;14.43;7.15;;;30.10;50.90;;;;;;4392627;28;658698;-70
2023/09/13 13:06:55;;;;;;;11.23;7.73;;;30.00;51.50;;;;;;4382405;28;659452;-72
2023/09/13 13:09:42;;;;;;;18.77;7.38;;;30.00;50.70;;;;;;4398223;28;658568;-71
2023/09/13 13:12:30;;;;;;;12.52;6.90;;;30.10;50.70;;;;;;4398027;28;660116;-71
2023/09/13 13:15:20;;;;;;;11.13;7.13;;;30.70;53.30;;;;;;4404099;28;659072;-71
2023/09/13 13:18:09;;;;;;;14.25;6.65;;;31.20;50.50;;;;;;4397118;28;659503;-71
2023/09/13 13:20:56;;;;;;;11.23;6.72;;;31.30;52.40;;;;;;4387728;28;658179;-71
2023/09/13 13:23:45;;;;;;;11.57;7.20;;;31.70;50.40;;;;;;4390007;28;659233;-72
2023/09/13 13:26:33;;;;;;;10.77;6.35;;;31.20;49.10;;;;;;4387829;28;659307;-71
2023/09/13 13:29:21;;;;;;;14.50;7.78;;;30.40;49.60;;;;;;4417612;28;659500;-72
2023/09/13 13:32:09;;;;;;;13.27;7.07;;;31.20;49.40;;;;;;4377275;28;658674;-71
2023/09/13 13:34:58;;;;;;;12.60;6.93;;;31.20;48.00;;;;;;4409096;28;658592;-72
2023/09/13 13:37:46;;;;;;;10.75;7.13;;;31.60;50.10;;;;;;4392544;28;660169;-71
2023/09/13 13:40:33;;;;;;;17.52;7.25;;;31.60;48.80;;;;;;4392030;28;658767;-71
2023/09/13 13:43:20;;;;;;;10.83;6.57;;;30.70;48.20;;;;;;4406670;28;659013;-71
2023/09/13 13:46:10;;;;;;;15.65;7.32;;;30.30;52.40;;;;;;4387341;28;659546;-71
2023/09/13 13:48:59;;;;;;;10.63;6.75;;;30.80;52.90;;;;;;4391556;28;658535;-70
2023/09/13 13:51:49;;;;;;;9.57;6.63;;;31.20;53.70;;;;;;4405680;28;658653;-71
2023/09/13 13:54:36;;;;;;;14.05;6.82;;;31.00;49.20;;;;;;4390497;28;658310;-71
2023/09/13 13:57:23;;;;;;;11.57;6.55;;;31.10;50.10;;;;;;4387044;28;658207;-71
2023/09/13 14:00:11;;;;;;;9.40;6.60;;;31.40;49.00;;;;;;4413349;28;659214;-71
2023/09/13 14:02:59;;;;;;;7.77;6.23;;;31.60;51.20;;;;;;4389079;28;658303;-71
2023/09/13 14:05:47;;;;;;;10.10;7.20;;;31.80;49.60;;;;;;4424180;28;657902;-70
2023/09/13 14:08:34;;;;;;;9.82;7.05;;;31.70;47.10;;;;;;4393789;28;659713;-70